createdAt,value
2024-05-09T00:00:48.327Z,1023.07
2024-05-09T00:01:48.169Z,1023.07
2024-05-09T00:02:48.194Z,1023.06
2024-05-09T00:03:48.242Z,1023.05
2024-05-09T00:04:48.215Z,1023.05
2024-05-09T00:05:48.157Z,1023.05
2024-05-09T00:06:48.091Z,1023.08
2024-05-09T00:07:48.105Z,1023.05
2024-05-09T00:08:48.087Z,1023.04
2024-05-09T00:09:48.058Z,1023.04
2024-05-09T00:10:48.218Z,1023.04
2024-05-09T00:11:48.219Z,1023.01
2024-05-09T00:12:48.038Z,1023.02
2024-05-09T00:13:48.083Z,1022.99
2024-05-09T00:14:48.023Z,1023.02
2024-05-09T00:15:48.011Z,1023.03
2024-05-09T00:16:48.017Z,1023.02
2024-05-09T00:17:48.178Z,1022.99
2024-05-09T00:18:48.046Z,1022.99
2024-05-09T00:19:47.992Z,1022.97
2024-05-09T00:20:48.027Z,1022.98
2024-05-09T00:21:47.959Z,1022.95
2024-05-09T00:22:47.974Z,1022.95
2024-05-09T00:23:47.940Z,1022.95
2024-05-09T00:24:47.935Z,1022.96
2024-05-09T00:25:47.987Z,1022.97
2024-05-09T00:26:47.943Z,1022.96
2024-05-09T00:27:47.903Z,1022.96
2024-05-09T00:28:47.925Z,1022.93
2024-05-09T00:29:47.889Z,1022.94
2024-05-09T00:30:47.883Z,1022.89
2024-05-09T00:31:47.959Z,1022.89
2024-05-09T00:32:48.004Z,1022.91
2024-05-09T00:33:47.947Z,1022.92
2024-05-09T00:34:47.871Z,1022.90
2024-05-09T00:35:47.830Z,1022.91
2024-05-09T00:36:47.825Z,1022.92
2024-05-09T00:37:47.840Z,1022.92
2024-05-09T00:38:47.808Z,1022.93
2024-05-09T00:39:47.798Z,1022.91
2024-05-09T00:40:47.867Z,1022.92
2024-05-09T00:41:47.826Z,1022.94
2024-05-09T00:42:47.766Z,1022.93
2024-05-09T00:43:47.772Z,1022.96
2024-05-09T00:44:47.765Z,1022.94
2024-05-09T00:45:47.747Z,1022.95
2024-05-09T00:46:47.800Z,1022.93
2024-05-09T00:47:47.977Z,1022.93
2024-05-09T00:48:47.849Z,1022.91
2024-05-09T00:49:47.806Z,1022.93
2024-05-09T00:50:47.763Z,1022.90
2024-05-09T00:51:47.703Z,1022.90
2024-05-09T00:52:47.706Z,1022.93
2024-05-09T00:53:47.746Z,1022.92
2024-05-09T00:54:47.662Z,1022.90
2024-05-09T00:55:47.846Z,1022.90
2024-05-09T00:56:47.643Z,1022.88
2024-05-09T00:57:47.635Z,1022.89
2024-05-09T00:58:47.636Z,1022.88
2024-05-09T00:59:47.616Z,1022.90
2024-05-09T01:00:47.639Z,1022.89
2024-05-09T01:01:47.721Z,1022.88
2024-05-09T01:02:47.675Z,1022.86
2024-05-09T01:03:50.442Z,1022.89
2024-05-09T01:04:47.823Z,1022.91
2024-05-09T01:05:47.621Z,1022.90
2024-05-09T01:06:47.555Z,1022.90
2024-05-09T01:07:47.561Z,1022.88
2024-05-09T01:08:47.538Z,1022.90
2024-05-09T01:09:47.527Z,1022.88
2024-05-09T01:10:48.660Z,1022.92
2024-05-09T01:11:47.637Z,1022.92
2024-05-09T01:12:47.498Z,1022.96
2024-05-09T01:13:47.508Z,1022.94
2024-05-09T01:14:47.482Z,1022.93
2024-05-09T01:15:47.473Z,1022.95
2024-05-09T01:16:47.496Z,1022.96
2024-05-09T01:17:47.846Z,1022.97
2024-05-09T01:18:47.587Z,1022.97
2024-05-09T01:19:47.493Z,1023.03
2024-05-09T01:20:47.509Z,1023.04
2024-05-09T01:21:47.435Z,1023.05
2024-05-09T01:22:47.511Z,1023.06
2024-05-09T01:23:47.404Z,1023.08
2024-05-09T01:24:47.397Z,1023.04
2024-05-09T01:25:47.507Z,1023.06
2024-05-09T01:26:47.399Z,1023.01
2024-05-09T01:27:47.384Z,1022.99
2024-05-09T01:28:47.382Z,1022.98
2024-05-09T01:29:47.354Z,1022.97
2024-05-09T01:30:47.366Z,1022.96
2024-05-09T01:31:47.414Z,1022.98
2024-05-09T01:32:47.393Z,1022.96
2024-05-09T01:33:47.543Z,1022.98
2024-05-09T01:34:47.327Z,1022.98
2024-05-09T01:35:47.286Z,1022.99
2024-05-09T01:36:47.275Z,1022.96
2024-05-09T01:37:47.327Z,1022.96
2024-05-09T01:38:47.270Z,1022.98
2024-05-09T01:39:47.250Z,1022.97
2024-05-09T01:40:47.336Z,1022.95
2024-05-09T01:41:47.231Z,1023.01
2024-05-09T01:42:47.235Z,1022.99
2024-05-09T01:43:47.236Z,1022.96
2024-05-09T01:44:47.198Z,1022.95
2024-05-09T01:45:47.199Z,1022.95
2024-05-09T01:46:47.226Z,1022.94
2024-05-09T01:47:47.269Z,1022.93
2024-05-09T01:48:47.254Z,1022.94
2024-05-09T01:49:47.207Z,1022.95
2024-05-09T01:50:47.202Z,1022.92
2024-05-09T01:51:47.146Z,1022.91
2024-05-09T01:52:47.174Z,1022.97
2024-05-09T01:53:47.126Z,1022.90
2024-05-09T01:54:47.113Z,1022.92
2024-05-09T01:55:47.119Z,1022.91
2024-05-09T01:56:47.089Z,1022.93
2024-05-09T01:57:47.081Z,1022.92
2024-05-09T01:58:47.121Z,1022.91
2024-05-09T01:59:47.064Z,1022.91
2024-05-09T02:00:47.099Z,1022.93
2024-05-09T02:01:56.543Z,1022.92
2024-05-09T02:02:47.286Z,1022.90
2024-05-09T02:03:47.152Z,1022.92
2024-05-09T02:04:47.083Z,1022.88
2024-05-09T02:05:47.791Z,1022.87
2024-05-09T02:06:47.008Z,1022.88
2024-05-09T02:07:47.086Z,1022.89
2024-05-09T02:08:47.024Z,1022.90
2024-05-09T02:09:46.967Z,1022.90
2024-05-09T02:10:47.712Z,1022.89
2024-05-09T02:11:47.021Z,1022.88
2024-05-09T02:12:46.940Z,1022.90
2024-05-09T02:13:46.975Z,1022.88
2024-05-09T02:14:46.923Z,1022.91
2024-05-09T02:15:46.951Z,1022.91
2024-05-09T02:16:46.922Z,1022.92
2024-05-09T02:17:47.054Z,1022.94
2024-05-09T02:18:47.061Z,1022.91
2024-05-09T02:19:46.900Z,1022.96
2024-05-09T02:20:46.903Z,1022.92
2024-05-09T02:21:46.852Z,1022.92
2024-05-09T02:22:46.884Z,1022.91
2024-05-09T02:23:46.850Z,1022.93
2024-05-09T02:24:46.829Z,1022.92
2024-05-09T02:25:46.862Z,1022.92
2024-05-09T02:26:46.804Z,1022.89
2024-05-09T02:27:46.804Z,1022.90
2024-05-09T02:28:46.864Z,1022.85
2024-05-09T02:29:46.778Z,1022.85
2024-05-09T02:30:46.766Z,1022.84
2024-05-09T02:31:46.874Z,1022.84
2024-05-09T02:32:46.944Z,1022.82
2024-05-09T02:33:47.001Z,1022.82
2024-05-09T02:34:46.768Z,1022.82
2024-05-09T02:35:46.734Z,1022.85
2024-05-09T02:36:46.789Z,1022.83
2024-05-09T02:37:46.752Z,1022.85
2024-05-09T02:38:46.698Z,1022.84
2024-05-09T02:39:46.680Z,1022.84
2024-05-09T02:40:46.708Z,1022.82
2024-05-09T02:41:46.660Z,1022.84
2024-05-09T02:42:46.651Z,1022.86
2024-05-09T02:43:46.661Z,1022.87
2024-05-09T02:44:46.645Z,1022.89
2024-05-09T02:45:46.623Z,1022.86
2024-05-09T02:46:46.628Z,1022.85
2024-05-09T02:47:46.717Z,1022.86
2024-05-09T02:48:46.733Z,1022.82
2024-05-09T02:49:46.659Z,1022.82
2024-05-09T02:50:46.660Z,1022.80
2024-05-09T02:51:46.564Z,1022.78
2024-05-09T02:52:46.596Z,1022.83
2024-05-09T02:53:46.583Z,1022.80
2024-05-09T02:54:46.535Z,1022.77
2024-05-09T02:55:46.567Z,1022.81
2024-05-09T02:56:46.517Z,1022.81
2024-05-09T02:57:46.507Z,1022.80
2024-05-09T02:58:46.518Z,1022.78
2024-05-09T02:59:46.489Z,1022.79
2024-05-09T03:00:46.602Z,1022.79
2024-05-09T03:01:46.578Z,1022.81
2024-05-09T03:02:46.555Z,1022.82
2024-05-09T03:03:46.585Z,1022.84
2024-05-09T03:04:46.527Z,1022.83
2024-05-09T03:05:46.921Z,1022.84
2024-05-09T03:06:46.417Z,1022.84
2024-05-09T03:07:46.457Z,1022.84
2024-05-09T03:08:46.418Z,1022.83
2024-05-09T03:09:46.387Z,1022.86
2024-05-09T03:10:46.433Z,1022.82
2024-05-09T03:11:46.476Z,1022.80
2024-05-09T03:12:46.368Z,1022.78
2024-05-09T03:13:46.371Z,1022.84
2024-05-09T03:14:46.349Z,1022.82
2024-05-09T03:15:46.327Z,1022.83
2024-05-09T03:16:46.366Z,1022.85
2024-05-09T03:17:46.549Z,1022.85
2024-05-09T03:18:46.387Z,1022.86
2024-05-09T03:19:46.361Z,1022.85
2024-05-09T03:20:46.324Z,1022.85
2024-05-09T03:21:46.266Z,1022.87
2024-05-09T03:22:46.284Z,1022.86
2024-05-09T03:23:46.340Z,1022.83
2024-05-09T03:24:46.234Z,1022.82
2024-05-09T03:25:46.256Z,1022.81
2024-05-09T03:26:46.218Z,1022.78
2024-05-09T03:27:46.205Z,1022.81
2024-05-09T03:28:46.342Z,1022.82
2024-05-09T03:29:46.184Z,1022.80
2024-05-09T03:30:46.177Z,1022.83
2024-05-09T03:31:46.244Z,1022.83
2024-05-09T03:32:46.401Z,1022.85
2024-05-09T03:33:46.319Z,1022.85
2024-05-09T03:34:46.158Z,1022.83
2024-05-09T03:35:46.227Z,1022.85
2024-05-09T03:36:46.118Z,1022.87
2024-05-09T03:37:46.129Z,1022.87
2024-05-09T03:38:46.140Z,1022.89
2024-05-09T03:39:46.085Z,1022.87
2024-05-09T03:40:46.216Z,1022.90
2024-05-09T03:41:46.077Z,1022.87
2024-05-09T03:42:46.057Z,1022.90
2024-05-09T03:43:46.057Z,1022.90
2024-05-09T03:44:46.041Z,1022.90
2024-05-09T03:45:46.019Z,1022.93
2024-05-09T03:46:46.010Z,1022.90
2024-05-09T03:47:46.305Z,1022.88
2024-05-09T03:48:46.076Z,1022.90
2024-05-09T03:49:46.017Z,1022.86
2024-05-09T03:50:46.066Z,1022.88
2024-05-09T03:51:45.962Z,1022.92
2024-05-09T03:52:46.000Z,1022.91
2024-05-09T03:53:45.970Z,1022.89
2024-05-09T03:54:45.942Z,1022.94
2024-05-09T03:55:45.994Z,1022.91
2024-05-09T03:56:46.041Z,1022.93
2024-05-09T03:57:45.897Z,1022.89
2024-05-09T03:58:46.014Z,1022.95
2024-05-09T03:59:45.881Z,1022.93
2024-05-09T04:00:45.943Z,1022.98
2024-05-09T04:01:46.053Z,1022.99
2024-05-09T04:02:45.877Z,1022.99
2024-05-09T04:03:46.020Z,1023.01
2024-05-09T04:04:45.896Z,1023.04
2024-05-09T04:05:46.120Z,1023.05
2024-05-09T04:06:45.819Z,1023.04
2024-05-09T04:07:45.847Z,1023.00
2024-05-09T04:08:45.812Z,1023.03
2024-05-09T04:09:45.777Z,1022.99
2024-05-09T04:10:45.980Z,1022.99
2024-05-09T04:11:45.842Z,1022.95
2024-05-09T04:12:45.749Z,1022.92
2024-05-09T04:13:45.832Z,1022.97
2024-05-09T04:14:45.729Z,1022.94
2024-05-09T04:15:45.721Z,1022.99
2024-05-09T04:16:45.731Z,1022.95
2024-05-09T04:17:45.813Z,1022.97
2024-05-09T04:18:45.785Z,1022.95
2024-05-09T04:19:45.707Z,1022.92
2024-05-09T04:20:45.701Z,1022.95
2024-05-09T04:21:45.659Z,1022.95
2024-05-09T04:22:45.696Z,1022.94
2024-05-09T04:23:45.664Z,1022.97
2024-05-09T04:24:45.628Z,1022.94
2024-05-09T04:25:46.005Z,1022.93
2024-05-09T04:26:45.604Z,1022.95
2024-05-09T04:27:45.602Z,1022.94
2024-05-09T04:28:45.642Z,1022.93
2024-05-09T04:29:45.581Z,1023.01
2024-05-09T04:30:45.569Z,1022.99
2024-05-09T04:31:45.588Z,1022.96
2024-05-09T04:32:45.661Z,1022.99
2024-05-09T04:33:45.641Z,1023.10
2024-05-09T04:34:45.570Z,1023.10
2024-05-09T04:35:45.755Z,1023.09
2024-05-09T04:36:45.518Z,1023.16
2024-05-09T04:37:45.561Z,1023.16
2024-05-09T04:38:45.521Z,1023.16
2024-05-09T04:39:45.483Z,1023.13
2024-05-09T04:40:45.512Z,1023.14
2024-05-09T04:41:45.466Z,1023.08
2024-05-09T04:42:45.459Z,1023.10
2024-05-09T04:43:45.462Z,1023.12
2024-05-09T04:44:45.442Z,1023.11
2024-05-09T04:45:45.425Z,1023.11
2024-05-09T04:46:45.450Z,1023.15
2024-05-09T04:47:45.537Z,1023.15
2024-05-09T04:48:45.582Z,1023.16
2024-05-09T04:49:45.403Z,1023.17
2024-05-09T04:50:45.444Z,1023.19
2024-05-09T04:51:45.385Z,1023.21
2024-05-09T04:52:45.387Z,1023.21
2024-05-09T04:53:45.509Z,1023.20
2024-05-09T04:54:45.351Z,1023.21
2024-05-09T04:55:45.483Z,1023.21
2024-05-09T04:56:45.375Z,1023.20
2024-05-09T04:57:45.328Z,1023.20
2024-05-09T04:58:45.357Z,1023.21
2024-05-09T04:59:45.310Z,1023.20
2024-05-09T05:00:45.371Z,1023.17
2024-05-09T05:01:45.417Z,1023.15
2024-05-09T05:02:45.347Z,1023.16
2024-05-09T05:03:45.431Z,1023.13
2024-05-09T05:04:45.378Z,1023.15
2024-05-09T05:05:46.118Z,1023.16
2024-05-09T05:06:45.251Z,1023.22
2024-05-09T05:07:45.289Z,1023.20
2024-05-09T05:08:45.286Z,1023.21
2024-05-09T05:09:45.244Z,1023.19
2024-05-09T05:10:45.458Z,1023.19
2024-05-09T05:11:45.288Z,1023.23
2024-05-09T05:12:45.208Z,1023.20
2024-05-09T05:13:45.236Z,1023.16
2024-05-09T05:14:45.195Z,1023.16
2024-05-09T05:15:45.183Z,1023.17
2024-05-09T05:16:45.224Z,1023.16
2024-05-09T05:17:45.352Z,1023.20
2024-05-09T05:18:45.223Z,1023.18
2024-05-09T05:19:45.260Z,1023.15
2024-05-09T05:20:45.249Z,1023.21
2024-05-09T05:21:45.142Z,1023.17
2024-05-09T05:22:45.179Z,1023.23
2024-05-09T05:23:45.184Z,1023.24
2024-05-09T05:24:45.135Z,1023.21
2024-05-09T05:25:45.175Z,1023.23
2024-05-09T05:26:45.180Z,1023.21
2024-05-09T05:27:45.099Z,1023.22
2024-05-09T05:28:45.157Z,1023.20
2024-05-09T05:29:45.125Z,1023.22
2024-05-09T05:30:45.093Z,1023.24
2024-05-09T05:31:45.177Z,1023.21
2024-05-09T05:32:45.162Z,1023.25
2024-05-09T05:33:45.147Z,1023.24
2024-05-09T05:34:45.091Z,1023.24
2024-05-09T05:35:45.055Z,1023.27
2024-05-09T05:36:45.041Z,1023.25
2024-05-09T05:37:45.082Z,1023.21
2024-05-09T05:38:45.152Z,1023.20
2024-05-09T05:39:45.021Z,1023.23
2024-05-09T05:40:45.095Z,1023.20
2024-05-09T05:41:45.011Z,1023.21
2024-05-09T05:42:45.007Z,1023.22
2024-05-09T05:43:45.040Z,1023.19
2024-05-09T05:44:44.992Z,1023.23
2024-05-09T05:45:44.999Z,1023.21
2024-05-09T05:46:45.018Z,1023.21
2024-05-09T05:47:45.189Z,1023.19
2024-05-09T05:48:45.087Z,1023.19
2024-05-09T05:49:45.028Z,1023.22
2024-05-09T05:50:45.003Z,1023.17
2024-05-09T05:51:44.953Z,1023.21
2024-05-09T05:52:44.979Z,1023.24
2024-05-09T05:53:45.011Z,1023.24
2024-05-09T05:54:44.944Z,1023.26
2024-05-09T05:55:44.982Z,1023.22
2024-05-09T05:56:44.986Z,1023.24
2024-05-09T05:57:44.938Z,1023.20
2024-05-09T05:58:44.944Z,1023.25
2024-05-09T05:59:44.945Z,1023.23
2024-05-09T06:00:45.063Z,1023.22
2024-05-09T06:01:44.944Z,1023.23
2024-05-09T06:02:45.107Z,1023.28
2024-05-09T06:03:45.025Z,1023.27
2024-05-09T06:04:45.034Z,1023.27
2024-05-09T06:05:44.919Z,1023.30
2024-05-09T06:06:44.888Z,1023.28
2024-05-09T06:07:44.896Z,1023.28
2024-05-09T06:08:45.069Z,1023.27
2024-05-09T06:09:47.499Z,1023.21
2024-05-09T06:10:45.006Z,1023.20
2024-05-09T06:11:44.992Z,1023.20
2024-05-09T06:12:44.847Z,1023.20
2024-05-09T06:13:44.931Z,1023.19
2024-05-09T06:14:44.842Z,1023.20
2024-05-09T06:15:44.840Z,1023.22
2024-05-09T06:16:44.906Z,1023.21
2024-05-09T06:17:45.127Z,1023.22
2024-05-09T06:18:44.899Z,1023.26
2024-05-09T06:19:45.015Z,1023.27
2024-05-09T06:20:44.906Z,1023.24
2024-05-09T06:21:44.818Z,1023.22
2024-05-09T06:22:44.859Z,1023.22
2024-05-09T06:23:44.828Z,1023.18
2024-05-09T06:24:44.800Z,1023.19
2024-05-09T06:25:44.950Z,1023.15
2024-05-09T06:26:44.860Z,1023.11
2024-05-09T06:27:44.804Z,1023.13
2024-05-09T06:28:44.851Z,1023.22
2024-05-09T06:29:44.807Z,1023.17
2024-05-09T06:30:44.789Z,1023.12
2024-05-09T06:31:44.872Z,1023.13
2024-05-09T06:32:44.873Z,1023.15
2024-05-09T06:33:45.007Z,1023.14
2024-05-09T06:34:44.881Z,1023.13
2024-05-09T06:35:45.093Z,1023.14
2024-05-09T06:36:44.783Z,1023.15
2024-05-09T06:37:44.801Z,1023.12
2024-05-09T06:38:45.045Z,1023.16
2024-05-09T06:39:44.773Z,1023.12
2024-05-09T06:40:45.044Z,1023.13
2024-05-09T06:41:44.783Z,1023.12
2024-05-09T06:42:44.756Z,1023.14
2024-05-09T06:43:44.814Z,1023.16
2024-05-09T06:44:44.764Z,1023.09
2024-05-09T06:45:44.759Z,1023.11
2024-05-09T06:46:44.852Z,1023.12
2024-05-09T06:47:44.858Z,1023.11
2024-05-09T06:48:45.050Z,1023.12
2024-05-09T06:49:44.852Z,1023.11
2024-05-09T06:50:44.791Z,1023.12
2024-05-09T06:51:44.737Z,1023.15
2024-05-09T06:52:44.790Z,1023.17
2024-05-09T06:53:44.761Z,1023.13
2024-05-09T06:54:44.732Z,1023.14
2024-05-09T06:55:44.860Z,1023.11
2024-05-09T06:56:44.765Z,1023.09
2024-05-09T06:57:44.736Z,1023.09
2024-05-09T06:58:44.820Z,1023.10
2024-05-09T06:59:44.759Z,1023.06
2024-05-09T07:00:44.784Z,1023.09
2024-05-09T07:01:44.853Z,1023.07
2024-05-09T07:02:44.829Z,1023.06
2024-05-09T07:03:44.835Z,1023.06
2024-05-09T07:04:44.864Z,1023.03
2024-05-09T07:05:45.071Z,1023.07
2024-05-09T07:06:44.721Z,1023.05
2024-05-09T07:07:44.783Z,1023.06
2024-05-09T07:08:44.726Z,1023.03
2024-05-09T07:09:44.857Z,1023.03
2024-05-09T07:10:44.941Z,1023.03
2024-05-09T07:11:44.781Z,1022.98
2024-05-09T07:12:44.711Z,1022.98
2024-05-09T07:13:44.788Z,1022.99
2024-05-09T07:14:44.764Z,1023.02
2024-05-09T07:15:44.724Z,1022.99
2024-05-09T07:16:44.703Z,1023.00
2024-05-09T07:17:44.803Z,1023.01
2024-05-09T07:18:44.925Z,1022.98
2024-05-09T07:19:44.759Z,1022.98
2024-05-09T07:20:44.769Z,1022.99
2024-05-09T07:21:44.721Z,1022.98
2024-05-09T07:22:44.704Z,1022.99
2024-05-09T07:23:47.246Z,1022.94
2024-05-09T07:24:44.721Z,1022.96
2024-05-09T07:25:44.716Z,1022.96
2024-05-09T07:26:44.811Z,1022.93
2024-05-09T07:27:44.730Z,1022.94
2024-05-09T07:28:44.706Z,1022.97
2024-05-09T07:29:44.730Z,1022.97
2024-05-09T07:30:44.834Z,1023.03
2024-05-09T07:31:44.701Z,1022.99
2024-05-09T07:32:44.997Z,1023.01
2024-05-09T07:33:44.788Z,1022.97
2024-05-09T07:34:44.696Z,1023.02
2024-05-09T07:35:44.720Z,1022.99
2024-05-09T07:36:44.701Z,1023.00
2024-05-09T07:37:44.710Z,1023.02
2024-05-09T07:38:44.741Z,1023.01
2024-05-09T07:39:44.701Z,1023.04
2024-05-09T07:40:44.811Z,1023.02
2024-05-09T07:41:44.760Z,1023.05
2024-05-09T07:42:44.706Z,1023.06
2024-05-09T07:43:44.724Z,1023.04
2024-05-09T07:44:44.712Z,1023.04
2024-05-09T07:45:51.693Z,1023.04
2024-05-09T07:47:48.440Z,1023.08
2024-05-09T07:49:12.695Z,1023.09
2024-05-09T07:51:32.327Z,1023.07
2024-05-09T07:53:14.467Z,1023.03
2024-05-09T07:53:34.418Z,1023.04
2024-05-09T07:53:48.170Z,1023.02
2024-05-09T07:54:44.905Z,1023.04
2024-05-09T07:55:44.816Z,1023.04
2024-05-09T07:56:44.840Z,1023.04
2024-05-09T07:57:44.747Z,1023.03
2024-05-09T07:58:44.720Z,1023.01
2024-05-09T07:59:44.738Z,1022.99
2024-05-09T08:00:44.775Z,1023.03
2024-05-09T08:01:44.817Z,1023.04
2024-05-09T08:02:44.751Z,1023.06
2024-05-09T08:03:44.953Z,1023.04
2024-05-09T08:04:44.803Z,1023.08
2024-05-09T08:05:44.801Z,1023.06
2024-05-09T08:06:44.792Z,1023.06
2024-05-09T08:07:44.719Z,1023.04
2024-05-09T08:08:44.725Z,1023.05
2024-05-09T08:09:44.761Z,1023.02
2024-05-09T08:10:44.851Z,1023.00
2024-05-09T08:11:44.834Z,1023.02
2024-05-09T08:12:44.785Z,1022.93
2024-05-09T08:13:44.760Z,1022.86
2024-05-09T08:14:44.743Z,1022.83
2024-05-09T08:15:44.867Z,1022.83
2024-05-09T08:16:44.743Z,1022.86
2024-05-09T08:17:44.881Z,1022.85
2024-05-09T08:18:44.868Z,1022.81
2024-05-09T08:19:44.775Z,1022.82
2024-05-09T08:20:44.730Z,1022.85
2024-05-09T08:21:44.756Z,1022.82
2024-05-09T08:22:44.744Z,1022.84
2024-05-09T08:23:44.731Z,1022.83
2024-05-09T08:24:44.774Z,1022.88
2024-05-09T08:25:44.738Z,1022.86
2024-05-09T08:26:44.730Z,1022.88
2024-05-09T08:27:44.749Z,1022.89
2024-05-09T08:28:44.728Z,1022.80
2024-05-09T08:29:44.775Z,1022.86
2024-05-09T08:30:44.965Z,1022.83
2024-05-09T08:31:44.840Z,1022.78
2024-05-09T08:32:44.794Z,1022.77
2024-05-09T08:33:44.838Z,1022.79
2024-05-09T08:34:44.800Z,1022.73
2024-05-09T08:35:44.715Z,1022.68
2024-05-09T08:36:44.733Z,1022.66
2024-05-09T08:37:44.761Z,1022.72
2024-05-09T08:38:44.709Z,1022.69
2024-05-09T08:39:44.746Z,1022.66
2024-05-09T08:40:44.864Z,1022.63
2024-05-09T08:41:44.709Z,1022.65
2024-05-09T08:42:44.717Z,1022.66
2024-05-09T08:43:44.694Z,1022.64
2024-05-09T08:44:44.706Z,1022.69
2024-05-09T08:45:45.572Z,1022.69
2024-05-09T08:46:44.687Z,1022.68
2024-05-09T08:47:44.745Z,1022.69
2024-05-09T08:48:44.886Z,1022.67
2024-05-09T08:49:44.710Z,1022.68
2024-05-09T08:50:45.658Z,1022.76
2024-05-09T08:51:44.700Z,1022.74
2024-05-09T08:52:44.663Z,1022.73
2024-05-09T08:53:44.663Z,1022.81
2024-05-09T08:54:44.710Z,1022.75
2024-05-09T08:55:44.844Z,1022.76
2024-05-09T08:56:44.707Z,1022.79
2024-05-09T08:57:44.720Z,1022.75
2024-05-09T08:58:44.646Z,1022.72
2024-05-09T08:59:44.663Z,1022.73
2024-05-09T09:00:45.374Z,1022.69
2024-05-09T09:01:44.774Z,1022.69
2024-05-09T09:02:44.854Z,1022.72
2024-05-09T09:03:44.811Z,1022.71
2024-05-09T09:04:44.726Z,1022.69
2024-05-09T09:05:44.725Z,1022.64
2024-05-09T09:06:44.685Z,1022.65
2024-05-09T09:07:44.624Z,1022.63
2024-05-09T09:08:44.616Z,1022.61
2024-05-09T09:09:44.691Z,1022.58
2024-05-09T09:10:44.853Z,1022.59
2024-05-09T09:11:44.631Z,1022.51
2024-05-09T09:12:44.632Z,1022.55
2024-05-09T09:13:44.609Z,1022.53
2024-05-09T09:14:44.594Z,1022.52
2024-05-09T09:15:44.611Z,1022.53
2024-05-09T09:16:44.597Z,1022.53
2024-05-09T09:17:44.636Z,1022.53
2024-05-09T09:18:44.878Z,1022.54
2024-05-09T09:19:44.643Z,1022.55
2024-05-09T09:20:44.745Z,1022.56
2024-05-09T09:21:44.591Z,1022.54
2024-05-09T09:22:44.569Z,1022.54
2024-05-09T09:23:44.651Z,1022.50
2024-05-09T09:24:44.610Z,1022.52
2024-05-09T09:25:44.703Z,1022.47
2024-05-09T09:26:44.572Z,1022.49
2024-05-09T09:27:44.614Z,1022.51
2024-05-09T09:28:44.559Z,1022.51
2024-05-09T09:29:44.578Z,1022.51
2024-05-09T09:30:44.712Z,1022.50
2024-05-09T09:31:44.541Z,1022.49
2024-05-09T09:32:44.575Z,1022.53
2024-05-09T09:33:44.699Z,1022.51
2024-05-09T09:34:44.554Z,1022.51
2024-05-09T09:35:44.521Z,1022.51
2024-05-09T09:36:44.561Z,1022.51
2024-05-09T09:37:44.512Z,1022.52
2024-05-09T09:38:44.548Z,1022.50
2024-05-09T09:39:48.818Z,1022.48
2024-05-09T09:40:48.597Z,1022.49
2024-05-09T09:41:44.631Z,1022.51
2024-05-09T09:42:44.528Z,1022.50
2024-05-09T09:43:44.523Z,1022.51
2024-05-09T09:44:47.808Z,1022.48
2024-05-09T09:45:44.504Z,1022.49
2024-05-09T09:46:44.486Z,1022.46
2024-05-09T09:47:44.732Z,1022.45
2024-05-09T09:48:44.604Z,1022.46
2024-05-09T09:49:44.571Z,1022.45
2024-05-09T09:50:44.473Z,1022.42
2024-05-09T09:51:44.471Z,1022.49
2024-05-09T09:52:44.452Z,1022.49
2024-05-09T09:53:44.450Z,1022.49
2024-05-09T09:54:44.494Z,1022.51
2024-05-09T09:55:44.454Z,1022.45
2024-05-09T09:56:44.434Z,1022.45
2024-05-09T09:57:44.456Z,1022.54
2024-05-09T09:58:44.427Z,1022.52
2024-05-09T09:59:44.424Z,1022.53
2024-05-09T10:00:44.863Z,1022.49
2024-05-09T10:01:44.474Z,1022.49
2024-05-09T10:02:44.445Z,1022.47
2024-05-09T10:03:44.596Z,1022.50
2024-05-09T10:04:44.607Z,1022.48
2024-05-09T10:05:47.014Z,1022.43
2024-05-09T10:06:44.406Z,1022.52
2024-05-09T10:07:44.391Z,1022.46
2024-05-09T10:08:44.383Z,1022.47
2024-05-09T10:09:44.460Z,1022.42
2024-05-09T10:10:44.664Z,1022.44
2024-05-09T10:11:49.188Z,1022.41
2024-05-09T10:12:44.383Z,1022.42
2024-05-09T10:13:44.364Z,1022.45
2024-05-09T10:14:44.365Z,1022.42
2024-05-09T10:15:44.371Z,1022.40
2024-05-09T10:16:44.354Z,1022.41
2024-05-09T10:17:44.451Z,1022.40
2024-05-09T10:18:44.504Z,1022.38
2024-05-09T10:19:44.379Z,1022.41
2024-05-09T10:20:44.532Z,1022.41
2024-05-09T10:21:44.379Z,1022.41
2024-05-09T10:22:44.322Z,1022.43
2024-05-09T10:23:44.322Z,1022.41
2024-05-09T10:24:44.335Z,1022.39
2024-05-09T10:25:44.309Z,1022.43
2024-05-09T10:26:44.308Z,1022.41
2024-05-09T10:27:44.364Z,1022.42
2024-05-09T10:28:44.321Z,1022.40
2024-05-09T10:29:44.291Z,1022.44
2024-05-09T10:30:45.673Z,1022.44
2024-05-09T10:31:44.389Z,1022.39
2024-05-09T10:32:44.350Z,1022.38
2024-05-09T10:33:44.495Z,1022.32
2024-05-09T10:34:44.312Z,1022.34
2024-05-09T10:35:44.268Z,1022.33
2024-05-09T10:36:44.303Z,1022.29
2024-05-09T10:37:44.256Z,1022.32
2024-05-09T10:38:44.252Z,1022.31
2024-05-09T10:39:44.296Z,1022.30
2024-05-09T10:40:44.325Z,1022.24
2024-05-09T10:41:44.255Z,1022.21
2024-05-09T10:42:44.275Z,1022.20
2024-05-09T10:43:44.256Z,1022.19
2024-05-09T10:44:44.223Z,1022.15
2024-05-09T10:45:44.257Z,1022.18
2024-05-09T10:46:44.242Z,1022.14
2024-05-09T10:47:44.288Z,1022.15
2024-05-09T10:48:44.684Z,1022.16
2024-05-09T10:49:44.384Z,1022.16
2024-05-09T10:50:44.195Z,1022.16
2024-05-09T10:51:44.275Z,1022.12
2024-05-09T10:52:44.187Z,1022.17
2024-05-09T10:53:44.201Z,1022.13
2024-05-09T10:54:44.238Z,1022.14
2024-05-09T10:55:44.172Z,1022.13
2024-05-09T10:56:44.221Z,1022.08
2024-05-09T10:57:44.248Z,1022.05
2024-05-09T10:58:44.251Z,1022.05
2024-05-09T10:59:44.184Z,1022.00
2024-05-09T11:00:44.330Z,1022.01
2024-05-09T11:01:44.682Z,1022.01
2024-05-09T11:02:44.304Z,1022.03
2024-05-09T11:03:44.357Z,1021.97
2024-05-09T11:04:44.201Z,1022.02
2024-05-09T11:05:44.241Z,1022.01
2024-05-09T11:06:44.176Z,1022.03
2024-05-09T11:07:44.132Z,1022.02
2024-05-09T11:08:44.135Z,1022.02
2024-05-09T11:09:44.132Z,1021.96
2024-05-09T11:10:44.211Z,1021.98
2024-05-09T11:11:44.183Z,1021.97
2024-05-09T11:12:44.123Z,1021.92
2024-05-09T11:13:44.104Z,1021.93
2024-05-09T11:14:44.100Z,1021.93
2024-05-09T11:15:44.156Z,1021.90
2024-05-09T11:16:44.091Z,1021.93
2024-05-09T11:17:44.191Z,1021.94
2024-05-09T11:18:44.283Z,1021.88
2024-05-09T11:19:44.134Z,1021.86
2024-05-09T11:20:44.190Z,1021.82
2024-05-09T11:21:44.202Z,1021.83
2024-05-09T11:22:44.081Z,1021.80
2024-05-09T11:23:44.065Z,1021.79
2024-05-09T11:24:44.112Z,1021.80
2024-05-09T11:25:44.055Z,1021.79
2024-05-09T11:26:44.056Z,1021.80
2024-05-09T11:27:44.100Z,1021.83
2024-05-09T11:28:44.043Z,1021.82
2024-05-09T11:29:44.039Z,1021.80
2024-05-09T11:30:44.090Z,1021.77
2024-05-09T11:31:44.127Z,1021.78
2024-05-09T11:32:44.091Z,1021.85
2024-05-09T11:33:44.210Z,1021.80
2024-05-09T11:34:44.067Z,1021.78
2024-05-09T11:35:44.016Z,1021.78
2024-05-09T11:36:44.077Z,1021.78
2024-05-09T11:37:44.012Z,1021.72
2024-05-09T11:38:44.014Z,1021.73
2024-05-09T11:39:44.061Z,1021.70
2024-05-09T11:40:44.143Z,1021.70
2024-05-09T11:41:43.994Z,1021.65
2024-05-09T11:42:44.010Z,1021.68
2024-05-09T11:43:43.987Z,1021.68
2024-05-09T11:44:43.980Z,1021.69
2024-05-09T11:45:44.002Z,1021.66
2024-05-09T11:46:43.975Z,1021.65
2024-05-09T11:47:44.032Z,1021.68
2024-05-09T11:48:44.316Z,1021.68
2024-05-09T11:49:43.973Z,1021.67
2024-05-09T11:50:43.986Z,1021.67
2024-05-09T11:51:44.003Z,1021.65
2024-05-09T11:52:43.949Z,1021.62
2024-05-09T11:53:43.944Z,1021.58
2024-05-09T11:54:44.006Z,1021.55
2024-05-09T11:55:43.942Z,1021.57
2024-05-09T11:56:43.933Z,1021.57
2024-05-09T11:57:43.976Z,1021.55
2024-05-09T11:58:43.926Z,1021.52
2024-05-09T11:59:43.923Z,1021.49
2024-05-09T12:00:44.103Z,1021.45
2024-05-09T12:01:44.015Z,1021.47
2024-05-09T12:02:43.912Z,1021.47
2024-05-09T12:03:44.121Z,1021.46
2024-05-09T12:04:43.998Z,1021.46
2024-05-09T12:05:44.025Z,1021.44
2024-05-09T12:06:43.942Z,1021.46
2024-05-09T12:07:43.896Z,1021.44